sensor_id;sensor_type;location;lat;lon;timestamp;temperature;humidity
22558;DHT22;11445;53.816;8.902;2023-02-01T00:00:26;6.20;99.90
22558;DHT22;11445;53.816;8.902;2023-02-01T00:02:53;6.20;99.90
22558;DHT22;11445;53.816;8.902;2023-02-01T00:05:23;6.20;99.90
22558;DHT22;11445;53.816;8.902;2023-02-01T00:07:50;6.20;99.90
22558;DHT22;11445;53.816;8.902;2023-02-01T00:10:17;6.20;99.90
22558;DHT22;11445;53.816;8.902;2023-02-01T00:12:45;6.20;99.90
22558;DHT22;11445;53.816;8.902;2023-02-01T00:15:12;6.20;99.90
22558;DHT22;11445;53.816;8.902;2023-02-01T00:17:39;6.30;99.90
22558;DHT22;11445;53.816;8.902;2023-02-01T00:20:07;6.30;99.90
22558;DHT22;11445;53.816;8.902;2023-02-01T00:22:35;6.20;99.90
22558;DHT22;11445;53.816;8.902;2023-02-01T00:25:03;6.20;99.90
22558;DHT22;11445;53.816;8.902;2023-02-01T00:27:30;6.20;99.90
22558;DHT22;11445;53.816;8.902;2023-02-01T00:29:57;6.20;99.90
22558;DHT22;11445;53.816;8.902;2023-02-01T00:32:24;6.20;99.90
22558;DHT22;11445;53.816;8.902;2023-02-01T00:34:51;6.20;99.90
22558;DHT22;11445;53.816;8.902;2023-02-01T00:37:18;6.30;99.90
22558;DHT22;11445;53.816;8.902;2023-02-01T00:39:46;6.30;99.90
22558;DHT22;11445;53.816;8.902;2023-02-01T00:42:13;6.30;99.90
22558;DHT22;11445;53.816;8.902;2023-02-01T00:44:40;6.30;99.90
22558;DHT22;11445;53.816;8.902;2023-02-01T00:47:07;6.30;99.90
22558;DHT22;11445;53.816;8.902;2023-02-01T00:49:34;6.30;99.90
22558;DHT22;11445;53.816;8.902;2023-02-01T00:52:01;6.30;99.90
22558;DHT22;11445;53.816;8.902;2023-02-01T00:54:28;6.30;99.90
22558;DHT22;11445;53.816;8.902;2023-02-01T00:56:57;6.30;99.90
22558;DHT22;11445;53.816;8.902;2023-02-01T00:59:24;6.20;99.90
22558;DHT22;11445;53.816;8.902;2023-02-01T01:01:51;6.30;99.90
22558;DHT22;11445;53.816;8.902;2023-02-01T01:04:18;6.30;99.90
22558;DHT22;11445;53.816;8.902;2023-02-01T01:06:45;6.30;99.90
22558;DHT22;11445;53.816;8.902;2023-02-01T01:09:12;6.30;99.90
22558;DHT22;11445;53.816;8.902;2023-02-01T01:11:39;6.30;99.90
22558;DHT22;11445;53.816;8.902;2023-02-01T01:14:08;6.30;99.90
22558;DHT22;11445;53.816;8.902;2023-02-01T01:16:35;6.30;99.90
22558;DHT22;11445;53.816;8.902;2023-02-01T01:19:03;6.30;99.90
22558;DHT22;11445;53.816;8.902;2023-02-01T01:21:30;6.30;99.90
22558;DHT22;11445;53.816;8.902;2023-02-01T01:23:58;6.30;99.90
22558;DHT22;11445;53.816;8.902;2023-02-01T01:26:26;6.30;99.90
22558;DHT22;11445;53.816;8.902;2023-02-01T01:28:55;6.30;99.90
22558;DHT22;11445;53.816;8.902;2023-02-01T01:31:24;6.30;99.90
22558;DHT22;11445;53.816;8.902;2023-02-01T01:33:53;6.30;99.90
22558;DHT22;11445;53.816;8.902;2023-02-01T01:36:20;6.30;99.90
22558;DHT22;11445;53.816;8.902;2023-02-01T01:38:48;6.30;99.90
22558;DHT22;11445;53.816;8.902;2023-02-01T01:41:17;6.40;99.90
22558;DHT22;11445;53.816;8.902;2023-02-01T01:43:48;6.30;99.90
22558;DHT22;11445;53.816;8.902;2023-02-01T01:46:16;6.30;99.90
22558;DHT22;11445;53.816;8.902;2023-02-01T01:48:47;6.30;99.90
22558;DHT22;11445;53.816;8.902;2023-02-01T01:51:17;6.30;99.90
22558;DHT22;11445;53.816;8.902;2023-02-01T01:53:51;6.30;99.90
22558;DHT22;11445;53.816;8.902;2023-02-01T01:56:20;6.20;99.90
22558;DHT22;11445;53.816;8.902;2023-02-01T01:58:48;6.20;99.90
22558;DHT22;11445;53.816;8.902;2023-02-01T02:01:15;6.20;99.90
22558;DHT22;11445;53.816;8.902;2023-02-01T02:03:45;6.10;99.90
22558;DHT22;11445;53.816;8.902;2023-02-01T02:06:23;6.10;99.90
22558;DHT22;11445;53.816;8.902;2023-02-01T02:08:53;6.10;99.90
22558;DHT22;11445;53.816;8.902;2023-02-01T02:11:20;6.00;99.90
22558;DHT22;11445;53.816;8.902;2023-02-01T02:13:50;6.00;99.90
22558;DHT22;11445;53.816;8.902;2023-02-01T02:16:47;6.00;99.90
22558;DHT22;11445;53.816;8.902;2023-02-01T02:22:35;6.00;99.90
22558;DHT22;11445;53.816;8.902;2023-02-01T02:28:42;5.90;99.90
22558;DHT22;11445;53.816;8.902;2023-02-01T02:34:25;5.90;99.90
22558;DHT22;11445;53.816;8.902;2023-02-01T02:37:00;5.90;99.90
22558;DHT22;11445;53.816;8.902;2023-02-01T02:39:39;5.90;99.90
22558;DHT22;11445;53.816;8.902;2023-02-01T02:42:13;5.80;99.90
22558;DHT22;11445;53.816;8.902;2023-02-01T02:45:02;5.80;99.90
22558;DHT22;11445;53.816;8.902;2023-02-01T02:47:54;5.80;99.90
22558;DHT22;11445;53.816;8.902;2023-02-01T02:50:29;5.80;99.90
22558;DHT22;11445;53.816;8.902;2023-02-01T02:53:17;5.70;99.90
22558;DHT22;11445;53.816;8.902;2023-02-01T02:56:04;5.80;99.90
22558;DHT22;11445;53.816;8.902;2023-02-01T02:58:50;5.80;99.90
22558;DHT22;11445;53.816;8.902;2023-02-01T03:01:36;5.80;99.90
22558;DHT22;11445;53.816;8.902;2023-02-01T03:04:22;5.80;99.90
22558;DHT22;11445;53.816;8.902;2023-02-01T03:06:51;5.80;99.90
22558;DHT22;11445;53.816;8.902;2023-02-01T03:09:24;5.80;99.90
22558;DHT22;11445;53.816;8.902;2023-02-01T03:11:56;5.80;99.90
22558;DHT22;11445;53.816;8.902;2023-02-01T03:14:44;5.90;99.90
22558;DHT22;11445;53.816;8.902;2023-02-01T03:17:15;5.90;99.90
22558;DHT22;11445;53.816;8.902;2023-02-01T03:19:46;5.90;99.90
22558;DHT22;11445;53.816;8.902;2023-02-01T03:22:19;5.90;99.90
22558;DHT22;11445;53.816;8.902;2023-02-01T03:24:50;5.80;99.90
22558;DHT22;11445;53.816;8.902;2023-02-01T03:27:21;5.80;99.90
22558;DHT22;11445;53.816;8.902;2023-02-01T03:29:53;5.80;99.90
22558;DHT22;11445;53.816;8.902;2023-02-01T03:32:21;5.80;99.90
22558;DHT22;11445;53.816;8.902;2023-02-01T03:34:49;5.70;99.90
22558;DHT22;11445;53.816;8.902;2023-02-01T03:37:23;5.70;99.90
22558;DHT22;11445;53.816;8.902;2023-02-01T03:39:55;5.70;99.90
22558;DHT22;11445;53.816;8.902;2023-02-01T03:42:28;5.70;99.90
22558;DHT22;11445;53.816;8.902;2023-02-01T03:45:01;5.70;99.90
22558;DHT22;11445;53.816;8.902;2023-02-01T03:47:33;5.70;99.90
22558;DHT22;11445;53.816;8.902;2023-02-01T03:50:05;5.70;99.90
22558;DHT22;11445;53.816;8.902;2023-02-01T03:52:40;5.70;99.90
22558;DHT22;11445;53.816;8.902;2023-02-01T03:55:09;5.60;99.90
22558;DHT22;11445;53.816;8.902;2023-02-01T03:57:44;5.60;99.90
22558;DHT22;11445;53.816;8.902;2023-02-01T04:00:18;5.50;99.90
22558;DHT22;11445;53.816;8.902;2023-02-01T04:02:47;5.50;99.90
22558;DHT22;11445;53.816;8.902;2023-02-01T04:05:14;5.40;99.90
22558;DHT22;11445;53.816;8.902;2023-02-01T04:07:43;5.40;99.90
22558;DHT22;11445;53.816;8.902;2023-02-01T04:10:10;5.30;99.90
22558;DHT22;11445;53.816;8.902;2023-02-01T04:12:39;5.20;99.90
22558;DHT22;11445;53.816;8.902;2023-02-01T04:15:07;5.10;99.90
22558;DHT22;11445;53.816;8.902;2023-02-01T04:17:34;5.00;99.90
22558;DHT22;11445;53.816;8.902;2023-02-01T04:20:01;4.90;99.90
22558;DHT22;11445;53.816;8.902;2023-02-01T04:22:30;4.90;99.90
22558;DHT22;11445;53.816;8.902;2023-02-01T04:24:58;4.80;99.90
22558;DHT22;11445;53.816;8.902;2023-02-01T04:27:25;4.80;99.90
22558;DHT22;11445;53.816;8.902;2023-02-01T04:29:52;4.70;99.90
22558;DHT22;11445;53.816;8.902;2023-02-01T04:32:19;4.70;99.90
22558;DHT22;11445;53.816;8.902;2023-02-01T04:34:46;4.70;99.90
22558;DHT22;11445;53.816;8.902;2023-02-01T04:37:13;4.60;99.90
22558;DHT22;11445;53.816;8.902;2023-02-01T04:39:40;4.60;99.90
22558;DHT22;11445;53.816;8.902;2023-02-01T04:42:09;4.60;99.90
22558;DHT22;11445;53.816;8.902;2023-02-01T04:44:36;4.60;99.90
22558;DHT22;11445;53.816;8.902;2023-02-01T04:47:05;4.60;99.90
22558;DHT22;11445;53.816;8.902;2023-02-01T04:49:32;4.70;99.90
22558;DHT22;11445;53.816;8.902;2023-02-01T04:51:59;4.70;99.90
22558;DHT22;11445;53.816;8.902;2023-02-01T04:54:26;4.80;99.90
22558;DHT22;11445;53.816;8.902;2023-02-01T04:56:53;4.80;99.90
22558;DHT22;11445;53.816;8.902;2023-02-01T04:59:22;4.90;99.90
22558;DHT22;11445;53.816;8.902;2023-02-01T05:01:49;5.00;99.90
22558;DHT22;11445;53.816;8.902;2023-02-01T05:04:16;5.00;99.90
22558;DHT22;11445;53.816;8.902;2023-02-01T05:06:44;5.00;99.90
22558;DHT22;11445;53.816;8.902;2023-02-01T05:09:11;5.00;99.90
22558;DHT22;11445;53.816;8.902;2023-02-01T05:11:38;5.00;99.90
22558;DHT22;11445;53.816;8.902;2023-02-01T05:14:39;5.00;99.90
22558;DHT22;11445;53.816;8.902;2023-02-01T05:17:06;5.00;99.90
22558;DHT22;11445;53.816;8.902;2023-02-01T05:19:33;5.00;99.90
22558;DHT22;11445;53.816;8.902;2023-02-01T05:22:00;5.00;99.90
22558;DHT22;11445;53.816;8.902;2023-02-01T05:24:27;5.00;99.90
22558;DHT22;11445;53.816;8.902;2023-02-01T05:26:54;5.10;99.90
22558;DHT22;11445;53.816;8.902;2023-02-01T05:29:21;5.10;99.90
22558;DHT22;11445;53.816;8.902;2023-02-01T05:31:49;5.20;99.90
22558;DHT22;11445;53.816;8.902;2023-02-01T05:34:16;5.20;99.90
22558;DHT22;11445;53.816;8.902;2023-02-01T05:36:43;5.20;99.90
22558;DHT22;11445;53.816;8.902;2023-02-01T05:39:10;5.30;99.90
22558;DHT22;11445;53.816;8.902;2023-02-01T05:41:38;5.40;99.90
22558;DHT22;11445;53.816;8.902;2023-02-01T05:44:05;5.40;99.90
22558;DHT22;11445;53.816;8.902;2023-02-01T05:46:33;5.50;99.90
22558;DHT22;11445;53.816;8.902;2023-02-01T05:49:02;5.50;99.90
22558;DHT22;11445;53.816;8.902;2023-02-01T05:51:29;5.50;99.90
22558;DHT22;11445;53.816;8.902;2023-02-01T05:53:56;5.50;99.90
22558;DHT22;11445;53.816;8.902;2023-02-01T05:56:23;5.50;99.90
22558;DHT22;11445;53.816;8.902;2023-02-01T05:58:50;5.60;99.90
22558;DHT22;11445;53.816;8.902;2023-02-01T06:01:17;5.60;99.90
22558;DHT22;11445;53.816;8.902;2023-02-01T06:03:44;5.60;99.90
22558;DHT22;11445;53.816;8.902;2023-02-01T06:06:12;5.70;99.90
22558;DHT22;11445;53.816;8.902;2023-02-01T06:08:39;5.70;99.90
22558;DHT22;11445;53.816;8.902;2023-02-01T06:11:06;5.80;99.90
22558;DHT22;11445;53.816;8.902;2023-02-01T06:13:34;5.80;99.90
22558;DHT22;11445;53.816;8.902;2023-02-01T06:16:01;5.90;99.90
22558;DHT22;11445;53.816;8.902;2023-02-01T06:18:29;5.90;99.90
22558;DHT22;11445;53.816;8.902;2023-02-01T06:20:57;5.90;99.90
22558;DHT22;11445;53.816;8.902;2023-02-01T06:23:27;6.00;99.90
22558;DHT22;11445;53.816;8.902;2023-02-01T06:25:59;6.00;99.90
22558;DHT22;11445;53.816;8.902;2023-02-01T06:28:26;6.00;99.90
22558;DHT22;11445;53.816;8.902;2023-02-01T06:30:54;6.00;99.90
22558;DHT22;11445;53.816;8.902;2023-02-01T06:33:21;6.00;99.90
22558;DHT22;11445;53.816;8.902;2023-02-01T06:35:48;6.00;99.90
22558;DHT22;11445;53.816;8.902;2023-02-01T06:38:15;6.00;99.90
22558;DHT22;11445;53.816;8.902;2023-02-01T06:40:44;6.00;99.90
22558;DHT22;11445;53.816;8.902;2023-02-01T06:43:11;6.00;99.90
22558;DHT22;11445;53.816;8.902;2023-02-01T06:45:38;6.10;99.90
22558;DHT22;11445;53.816;8.902;2023-02-01T06:48:07;6.10;99.90
22558;DHT22;11445;53.816;8.902;2023-02-01T06:50:34;6.00;99.90
22558;DHT22;11445;53.816;8.902;2023-02-01T06:53:01;6.00;99.90
22558;DHT22;11445;53.816;8.902;2023-02-01T06:55:28;6.00;99.90
22558;DHT22;11445;53.816;8.902;2023-02-01T06:57:56;6.00;99.90
22558;DHT22;11445;53.816;8.902;2023-02-01T07:00:24;6.10;99.90
22558;DHT22;11445;53.816;8.902;2023-02-01T07:02:51;6.10;99.90
22558;DHT22;11445;53.816;8.902;2023-02-01T07:05:18;6.10;99.90
22558;DHT22;11445;53.816;8.902;2023-02-01T07:07:45;6.10;99.90
22558;DHT22;11445;53.816;8.902;2023-02-01T07:10:12;6.10;99.90
22558;DHT22;11445;53.816;8.902;2023-02-01T07:12:39;6.10;99.90
22558;DHT22;11445;53.816;8.902;2023-02-01T07:15:08;6.20;99.90
22558;DHT22;11445;53.816;8.902;2023-02-01T07:17:36;6.20;99.90
22558;DHT22;11445;53.816;8.902;2023-02-01T07:20:03;6.20;99.90
22558;DHT22;11445;53.816;8.902;2023-02-01T07:22:30;6.20;99.90
22558;DHT22;11445;53.816;8.902;2023-02-01T07:24:57;6.20;99.90
22558;DHT22;11445;53.816;8.902;2023-02-01T07:27:24;6.10;99.90
22558;DHT22;11445;53.816;8.902;2023-02-01T07:29:51;6.10;99.90
22558;DHT22;11445;53.816;8.902;2023-02-01T07:32:22;6.10;99.90
22558;DHT22;11445;53.816;8.902;2023-02-01T07:34:49;6.10;99.90
22558;DHT22;11445;53.816;8.902;2023-02-01T07:37:16;6.10;99.90
22558;DHT22;11445;53.816;8.902;2023-02-01T07:39:44;6.10;99.90
22558;DHT22;11445;53.816;8.902;2023-02-01T07:42:10;5.90;99.90
22558;DHT22;11445;53.816;8.902;2023-02-01T07:44:37;5.70;99.90
22558;DHT22;11445;53.816;8.902;2023-02-01T07:47:04;5.60;99.90
22558;DHT22;11445;53.816;8.902;2023-02-01T07:49:33;5.50;99.90
22558;DHT22;11445;53.816;8.902;2023-02-01T07:52:00;5.50;99.90
22558;DHT22;11445;53.816;8.902;2023-02-01T07:54:27;5.60;99.90
22558;DHT22;11445;53.816;8.902;2023-02-01T07:56:54;5.60;99.90
22558;DHT22;11445;53.816;8.902;2023-02-01T07:59:21;5.60;99.90
22558;DHT22;11445;53.816;8.902;2023-02-01T08:01:48;5.60;99.90
22558;DHT22;11445;53.816;8.902;2023-02-01T08:04:14;5.70;99.90
22558;DHT22;11445;53.816;8.902;2023-02-01T08:06:42;5.70;99.90
22558;DHT22;11445;53.816;8.902;2023-02-01T08:09:10;5.80;99.90
22558;DHT22;11445;53.816;8.902;2023-02-01T08:11:37;5.80;99.90
22558;DHT22;11445;53.816;8.902;2023-02-01T08:14:05;5.80;99.90
22558;DHT22;11445;53.816;8.902;2023-02-01T08:16:33;5.90;99.90
22558;DHT22;11445;53.816;8.902;2023-02-01T08:19:02;5.90;99.90
22558;DHT22;11445;53.816;8.902;2023-02-01T08:21:30;6.00;99.90
22558;DHT22;11445;53.816;8.902;2023-02-01T08:24:04;6.00;99.90
22558;DHT22;11445;53.816;8.902;2023-02-01T08:26:32;6.00;99.90
22558;DHT22;11445;53.816;8.902;2023-02-01T08:29:00;6.10;99.90
22558;DHT22;11445;53.816;8.902;2023-02-01T08:31:29;6.20;99.90
22558;DHT22;11445;53.816;8.902;2023-02-01T08:33:58;6.20;99.90
22558;DHT22;11445;53.816;8.902;2023-02-01T08:36:27;6.20;99.90
22558;DHT22;11445;53.816;8.902;2023-02-01T08:38:55;6.20;99.90
22558;DHT22;11445;53.816;8.902;2023-02-01T08:41:25;6.20;99.90
22558;DHT22;11445;53.816;8.902;2023-02-01T08:43:53;6.30;99.90
22558;DHT22;11445;53.816;8.902;2023-02-01T08:46:21;6.30;99.90
22558;DHT22;11445;53.816;8.902;2023-02-01T08:48:48;6.30;99.90
22558;DHT22;11445;53.816;8.902;2023-02-01T08:51:17;6.30;99.90
22558;DHT22;11445;53.816;8.902;2023-02-01T08:53:45;6.40;99.90
22558;DHT22;11445;53.816;8.902;2023-02-01T08:56:14;6.40;99.90
22558;DHT22;11445;53.816;8.902;2023-02-01T08:58:43;6.40;99.90
22558;DHT22;11445;53.816;8.902;2023-02-01T09:01:12;6.40;99.90
22558;DHT22;11445;53.816;8.902;2023-02-01T09:03:39;6.40;99.90
22558;DHT22;11445;53.816;8.902;2023-02-01T09:06:08;6.50;99.90
22558;DHT22;11445;53.816;8.902;2023-02-01T09:08:36;6.50;99.90
22558;DHT22;11445;53.816;8.902;2023-02-01T09:11:05;6.50;99.90
22558;DHT22;11445;53.816;8.902;2023-02-01T09:13:33;6.50;99.90
22558;DHT22;11445;53.816;8.902;2023-02-01T09:16:02;6.50;99.90
22558;DHT22;11445;53.816;8.902;2023-02-01T09:18:29;6.50;99.90
22558;DHT22;11445;53.816;8.902;2023-02-01T09:20:56;6.50;99.90
22558;DHT22;11445;53.816;8.902;2023-02-01T09:23:23;6.50;99.90
22558;DHT22;11445;53.816;8.902;2023-02-01T09:25:50;6.60;99.90
22558;DHT22;11445;53.816;8.902;2023-02-01T09:28:18;6.60;99.90
22558;DHT22;11445;53.816;8.902;2023-02-01T09:30:45;6.60;99.90
22558;DHT22;11445;53.816;8.902;2023-02-01T09:33:13;6.60;99.90
22558;DHT22;11445;53.816;8.902;2023-02-01T09:35:43;6.60;99.90
22558;DHT22;11445;53.816;8.902;2023-02-01T09:38:10;6.60;99.90
22558;DHT22;11445;53.816;8.902;2023-02-01T09:40:39;6.60;99.90
22558;DHT22;11445;53.816;8.902;2023-02-01T09:43:27;6.60;99.90
22558;DHT22;11445;53.816;8.902;2023-02-01T09:46:02;6.70;99.90
22558;DHT22;11445;53.816;8.902;2023-02-01T09:48:37;6.70;99.90
22558;DHT22;11445;53.816;8.902;2023-02-01T09:51:10;6.70;99.90
22558;DHT22;11445;53.816;8.902;2023-02-01T09:53:42;6.70;99.90
22558;DHT22;11445;53.816;8.902;2023-02-01T09:56:13;6.80;99.90
22558;DHT22;11445;53.816;8.902;2023-02-01T09:58:42;6.80;99.90
22558;DHT22;11445;53.816;8.902;2023-02-01T10:01:16;6.80;99.90
22558;DHT22;11445;53.816;8.902;2023-02-01T10:03:45;6.80;99.90
22558;DHT22;11445;53.816;8.902;2023-02-01T10:06:30;6.80;99.90
22558;DHT22;11445;53.816;8.902;2023-02-01T10:09:29;6.80;99.90
22558;DHT22;11445;53.816;8.902;2023-02-01T10:12:29;6.80;99.90
22558;DHT22;11445;53.816;8.902;2023-02-01T10:15:04;6.80;99.90
22558;DHT22;11445;53.816;8.902;2023-02-01T10:17:50;6.80;99.90
22558;DHT22;11445;53.816;8.902;2023-02-01T10:20:25;6.80;99.90
22558;DHT22;11445;53.816;8.902;2023-02-01T10:23:02;6.80;99.90
22558;DHT22;11445;53.816;8.902;2023-02-01T10:25:36;6.80;99.90
22558;DHT22;11445;53.816;8.902;2023-02-01T10:28:04;6.80;99.90
22558;DHT22;11445;53.816;8.902;2023-02-01T10:30:36;6.80;99.90
22558;DHT22;11445;53.816;8.902;2023-02-01T10:33:15;6.80;99.90
22558;DHT22;11445;53.816;8.902;2023-02-01T10:35:45;6.80;99.90
22558;DHT22;11445;53.816;8.902;2023-02-01T10:38:18;6.70;99.90
22558;DHT22;11445;53.816;8.902;2023-02-01T10:40:47;6.70;99.90
22558;DHT22;11445;53.816;8.902;2023-02-01T10:43:15;6.70;99.90
22558;DHT22;11445;53.816;8.902;2023-02-01T10:45:42;6.70;99.90
22558;DHT22;11445;53.816;8.902;2023-02-01T10:48:09;6.70;99.90
22558;DHT22;11445;53.816;8.902;2023-02-01T10:50:40;6.70;99.90
22558;DHT22;11445;53.816;8.902;2023-02-01T10:53:15;6.70;99.90
22558;DHT22;11445;53.816;8.902;2023-02-01T10:55:48;6.70;99.90
22558;DHT22;11445;53.816;8.902;2023-02-01T10:58:17;6.70;99.90
22558;DHT22;11445;53.816;8.902;2023-02-01T11:00:47;6.70;99.90
22558;DHT22;11445;53.816;8.902;2023-02-01T11:03:34;6.70;99.90
22558;DHT22;11445;53.816;8.902;2023-02-01T11:06:04;6.70;99.90
22558;DHT22;11445;53.816;8.902;2023-02-01T11:08:44;6.70;99.90
22558;DHT22;11445;53.816;8.902;2023-02-01T11:11:12;6.70;99.90
22558;DHT22;11445;53.816;8.902;2023-02-01T11:13:40;6.70;99.90
22558;DHT22;11445;53.816;8.902;2023-02-01T11:16:12;6.70;99.90
22558;DHT22;11445;53.816;8.902;2023-02-01T11:18:40;6.70;99.90
22558;DHT22;11445;53.816;8.902;2023-02-01T11:21:09;6.70;99.90
22558;DHT22;11445;53.816;8.902;2023-02-01T11:23:43;6.70;99.90
22558;DHT22;11445;53.816;8.902;2023-02-01T11:26:13;6.70;99.90
22558;DHT22;11445;53.816;8.902;2023-02-01T11:28:51;6.70;99.90
22558;DHT22;11445;53.816;8.902;2023-02-01T11:31:19;6.70;99.90
22558;DHT22;11445;53.816;8.902;2023-02-01T11:33:50;6.60;99.90
22558;DHT22;11445;53.816;8.902;2023-02-01T11:36:23;6.50;99.90
22558;DHT22;11445;53.816;8.902;2023-02-01T11:39:07;6.40;99.90
22558;DHT22;11445;53.816;8.902;2023-02-01T11:41:41;6.20;99.90
22558;DHT22;11445;53.816;8.902;2023-02-01T11:44:20;6.10;99.90
22558;DHT22;11445;53.816;8.902;2023-02-01T11:46:47;6.00;99.90
22558;DHT22;11445;53.816;8.902;2023-02-01T11:49:20;5.80;99.90
22558;DHT22;11445;53.816;8.902;2023-02-01T11:51:50;5.70;99.90
22558;DHT22;11445;53.816;8.902;2023-02-01T11:54:37;5.70;99.90
22558;DHT22;11445;53.816;8.902;2023-02-01T11:57:19;5.60;99.90
22558;DHT22;11445;53.816;8.902;2023-02-01T12:00:24;5.40;99.90
22558;DHT22;11445;53.816;8.902;2023-02-01T12:05:56;5.20;99.90
22558;DHT22;11445;53.816;8.902;2023-02-01T12:08:54;5.20;99.90
22558;DHT22;11445;53.816;8.902;2023-02-01T12:11:39;5.20;99.90
22558;DHT22;11445;53.816;8.902;2023-02-01T12:14:14;5.10;99.90
22558;DHT22;11445;53.816;8.902;2023-02-01T12:16:53;5.10;99.90
22558;DHT22;11445;53.816;8.902;2023-02-01T12:19:39;5.10;99.90
22558;DHT22;11445;53.816;8.902;2023-02-01T12:22:22;5.20;99.90
22558;DHT22;11445;53.816;8.902;2023-02-01T12:25:20;5.20;99.90
22558;DHT22;11445;53.816;8.902;2023-02-01T12:28:16;5.20;99.90
22558;DHT22;11445;53.816;8.902;2023-02-01T12:30:58;5.30;99.90
22558;DHT22;11445;53.816;8.902;2023-02-01T12:33:37;5.40;99.90
22558;DHT22;11445;53.816;8.902;2023-02-01T12:36:14;5.40;99.90
22558;DHT22;11445;53.816;8.902;2023-02-01T12:38:52;5.50;99.90
22558;DHT22;11445;53.816;8.902;2023-02-01T12:41:36;5.50;99.90
22558;DHT22;11445;53.816;8.902;2023-02-01T12:44:12;5.50;99.90
22558;DHT22;11445;53.816;8.902;2023-02-01T12:46:47;5.60;99.90
22558;DHT22;11445;53.816;8.902;2023-02-01T12:49:19;5.80;99.90
22558;DHT22;11445;53.816;8.902;2023-02-01T12:51:54;6.00;99.90
22558;DHT22;11445;53.816;8.902;2023-02-01T12:54:24;6.00;99.90
22558;DHT22;11445;53.816;8.902;2023-02-01T12:56:58;6.10;99.90
22558;DHT22;11445;53.816;8.902;2023-02-01T12:59:33;6.20;99.90
22558;DHT22;11445;53.816;8.902;2023-02-01T13:02:05;6.30;99.90
22558;DHT22;11445;53.816;8.902;2023-02-01T13:04:41;6.40;99.90
22558;DHT22;11445;53.816;8.902;2023-02-01T13:07:16;6.50;99.90
22558;DHT22;11445;53.816;8.902;2023-02-01T13:09:49;6.50;99.90
22558;DHT22;11445;53.816;8.902;2023-02-01T13:12:22;6.60;99.90
22558;DHT22;11445;53.816;8.902;2023-02-01T13:14:53;6.60;99.90
22558;DHT22;11445;53.816;8.902;2023-02-01T13:17:24;6.60;99.90
22558;DHT22;11445;53.816;8.902;2023-02-01T13:19:55;6.60;99.90
22558;DHT22;11445;53.816;8.902;2023-02-01T13:22:27;6.60;99.90
22558;DHT22;11445;53.816;8.902;2023-02-01T13:24:57;6.60;99.90
22558;DHT22;11445;53.816;8.902;2023-02-01T13:27:28;6.60;99.90
22558;DHT22;11445;53.816;8.902;2023-02-01T13:29:59;6.70;99.90
22558;DHT22;11445;53.816;8.902;2023-02-01T13:33:02;6.70;99.90
22558;DHT22;11445;53.816;8.902;2023-02-01T13:39:04;6.70;99.90
22558;DHT22;11445;53.816;8.902;2023-02-01T13:41:41;6.70;99.90
22558;DHT22;11445;53.816;8.902;2023-02-01T13:44:13;6.60;99.90
22558;DHT22;11445;53.816;8.902;2023-02-01T13:46:45;6.10;99.90
22558;DHT22;11445;53.816;8.902;2023-02-01T13:49:19;5.60;99.90
22558;DHT22;11445;53.816;8.902;2023-02-01T13:51:50;5.40;99.90
22558;DHT22;11445;53.816;8.902;2023-02-01T13:54:27;5.20;99.90
22558;DHT22;11445;53.816;8.902;2023-02-01T13:56:55;5.10;99.90
22558;DHT22;11445;53.816;8.902;2023-02-01T13:59:49;5.10;99.90
22558;DHT22;11445;53.816;8.902;2023-02-01T14:06:02;5.10;99.90
22558;DHT22;11445;53.816;8.902;2023-02-01T14:08:41;5.00;99.90
22558;DHT22;11445;53.816;8.902;2023-02-01T14:11:34;5.00;99.90
22558;DHT22;11445;53.816;8.902;2023-02-01T14:17:34;4.90;99.90
22558;DHT22;11445;53.816;8.902;2023-02-01T14:23:27;4.90;99.90
22558;DHT22;11445;53.816;8.902;2023-02-01T14:26:17;5.00;99.90
22558;DHT22;11445;53.816;8.902;2023-02-01T14:29:00;5.20;99.90
22558;DHT22;11445;53.816;8.902;2023-02-01T14:31:34;5.30;99.90
22558;DHT22;11445;53.816;8.902;2023-02-01T14:34:10;5.50;99.90
22558;DHT22;11445;53.816;8.902;2023-02-01T14:36:44;5.50;99.90
22558;DHT22;11445;53.816;8.902;2023-02-01T14:39:30;5.70;99.90
22558;DHT22;11445;53.816;8.902;2023-02-01T14:42:01;5.80;99.90
22558;DHT22;11445;53.816;8.902;2023-02-01T14:44:32;5.80;99.90
22558;DHT22;11445;53.816;8.902;2023-02-01T14:47:25;5.90;99.90
22558;DHT22;11445;53.816;8.902;2023-02-01T14:49:56;6.00;99.90
22558;DHT22;11445;53.816;8.902;2023-02-01T14:52:29;6.10;99.90
22558;DHT22;11445;53.816;8.902;2023-02-01T14:55:03;6.20;99.90
22558;DHT22;11445;53.816;8.902;2023-02-01T14:57:34;6.20;99.90
22558;DHT22;11445;53.816;8.902;2023-02-01T15:00:11;6.30;99.90
22558;DHT22;11445;53.816;8.902;2023-02-01T15:02:42;6.40;99.90
22558;DHT22;11445;53.816;8.902;2023-02-01T15:05:25;6.40;99.90
22558;DHT22;11445;53.816;8.902;2023-02-01T15:07:52;6.40;99.90
22558;DHT22;11445;53.816;8.902;2023-02-01T15:10:21;6.50;99.90
22558;DHT22;11445;53.816;8.902;2023-02-01T15:12:48;6.50;99.90
22558;DHT22;11445;53.816;8.902;2023-02-01T15:15:18;6.50;99.90
22558;DHT22;11445;53.816;8.902;2023-02-01T15:17:55;6.50;99.90
22558;DHT22;11445;53.816;8.902;2023-02-01T15:20:24;6.60;99.90
22558;DHT22;11445;53.816;8.902;2023-02-01T15:22:53;6.50;99.90
22558;DHT22;11445;53.816;8.902;2023-02-01T15:25:24;6.60;99.90
22558;DHT22;11445;53.816;8.902;2023-02-01T15:27:51;6.60;99.90
22558;DHT22;11445;53.816;8.902;2023-02-01T15:30:21;6.60;99.90
22558;DHT22;11445;53.816;8.902;2023-02-01T15:32:49;6.60;99.90
22558;DHT22;11445;53.816;8.902;2023-02-01T15:35:33;6.60;99.90
22558;DHT22;11445;53.816;8.902;2023-02-01T15:38:21;6.60;99.90
22558;DHT22;11445;53.816;8.902;2023-02-01T15:40:58;6.70;99.90
22558;DHT22;11445;53.816;8.902;2023-02-01T15:43:27;6.70;99.90
22558;DHT22;11445;53.816;8.902;2023-02-01T15:45:56;6.70;99.90
22558;DHT22;11445;53.816;8.902;2023-02-01T15:48:26;6.70;99.90
22558;DHT22;11445;53.816;8.902;2023-02-01T15:50:54;6.70;99.90
22558;DHT22;11445;53.816;8.902;2023-02-01T15:53:24;6.70;99.90
22558;DHT22;11445;53.816;8.902;2023-02-01T15:56:00;6.70;99.90
22558;DHT22;11445;53.816;8.902;2023-02-01T15:58:28;6.60;99.90
22558;DHT22;11445;53.816;8.902;2023-02-01T16:00:59;6.60;99.90
22558;DHT22;11445;53.816;8.902;2023-02-01T16:03:35;6.60;99.90
22558;DHT22;11445;53.816;8.902;2023-02-01T16:06:05;6.60;99.90
22558;DHT22;11445;53.816;8.902;2023-02-01T16:08:33;6.60;99.90
22558;DHT22;11445;53.816;8.902;2023-02-01T16:11:22;6.50;99.90
22558;DHT22;11445;53.816;8.902;2023-02-01T16:13:49;6.50;99.90
22558;DHT22;11445;53.816;8.902;2023-02-01T16:16:16;6.50;99.90
22558;DHT22;11445;53.816;8.902;2023-02-01T16:18:43;6.50;99.90
22558;DHT22;11445;53.816;8.902;2023-02-01T16:21:10;6.50;99.90
22558;DHT22;11445;53.816;8.902;2023-02-01T16:23:37;6.50;99.90
22558;DHT22;11445;53.816;8.902;2023-02-01T16:26:04;6.50;99.90
22558;DHT22;11445;53.816;8.902;2023-02-01T16:28:33;6.50;99.90
22558;DHT22;11445;53.816;8.902;2023-02-01T16:31:01;6.50;99.90
22558;DHT22;11445;53.816;8.902;2023-02-01T16:33:28;6.50;99.90
22558;DHT22;11445;53.816;8.902;2023-02-01T16:35:56;6.40;99.90
22558;DHT22;11445;53.816;8.902;2023-02-01T16:38:25;6.40;99.90